Time;durP1;ratioP1;P1;durP2;ratioP2;P2;SDS_P1;SDS_P2;PMS_P1;PMS_P2;Temp;Humidity;BMP_temperature;BMP_pressure;BME280_temperature;BME280_humidity;BME280_pressure;Samples;Min_cycle;Max_cycle;Signal;HPM_P1;HPM_P2
2022/09/15 00:00:41;;;;;;;18.23;4.30;;;;;;;;;;5025498;28;20084;-48
2022/09/15 00:03:06;;;;;;;14.82;4.25;;;;;;;;;;5025620;28;20034;-48
2022/09/15 00:05:32;;;;;;;19.15;4.32;;;;;;;;;;5020300;28;20044;-48
2022/09/15 00:07:57;;;;;;;16.65;4.40;;;;;;;;;;5005125;28;20497;-52
2022/09/15 00:10:23;;;;;;;17.73;4.55;;;;;;;;;;5009608;28;20048;-48
2022/09/15 00:12:49;;;;;;;19.25;4.07;;;;;;;;;;5026479;28;20021;-49
2022/09/15 00:15:15;;;;;;;20.65;4.60;;;;;;;;;;5021835;28;20037;-50
2022/09/15 00:17:46;;;;;;;14.90;3.95;;;;;;;;;;5005514;28;20626;-48
2022/09/15 00:20:12;;;;;;;16.90;3.53;;;;;;;;;;5004367;28;20044;-49
2022/09/15 00:22:37;;;;;;;17.55;4.10;;;;;;;;;;5005783;28;20534;-51
2022/09/15 00:25:04;;;;;;;15.55;4.13;;;;;;;;;;5007499;28;20101;-49
2022/09/15 00:27:31;;;;;;;17.95;4.40;;;;;;;;;;5017503;28;20069;-48
2022/09/15 00:29:57;;;;;;;16.40;3.90;;;;;;;;;;5017784;28;20020;-50
2022/09/15 00:32:23;;;;;;;14.75;3.88;;;;;;;;;;5023078;28;20052;-48
2022/09/15 00:34:50;;;;;;;13.68;3.90;;;;;;;;;;5025738;28;20061;-48
2022/09/15 00:37:16;;;;;;;14.68;4.28;;;;;;;;;;5008270;28;20068;-49
2022/09/15 00:39:41;;;;;;;17.60;4.43;;;;;;;;;;5005750;28;20038;-51
2022/09/15 00:42:14;;;;;;;17.52;3.72;;;;;;;;;;5007225;28;20510;-48
2022/09/15 00:45:13;;;;;;;17.90;4.22;;;;;;;;;;5003626;28;20575;-48
2022/09/15 00:47:39;;;;;;;22.20;5.20;;;;;;;;;;4995189;28;20054;-48
2022/09/15 00:50:09;;;;;;;16.65;3.67;;;;;;;;;;5006130;28;20030;-51
2022/09/15 00:52:46;;;;;;;19.02;4.43;;;;;;;;;;5003519;28;20522;-47
2022/09/15 00:55:40;;;;;;;16.85;3.85;;;;;;;;;;5001526;28;20101;-48
2022/09/15 00:58:10;;;;;;;21.60;4.22;;;;;;;;;;5007064;28;20525;-48
2022/09/15 01:00:39;;;;;;;19.92;4.72;;;;;;;;;;5008422;28;20053;-48
2022/09/15 01:03:05;;;;;;;13.32;3.22;;;;;;;;;;5024938;28;20449;-47
2022/09/15 01:05:35;;;;;;;17.00;3.60;;;;;;;;;;5022845;28;20125;-48
2022/09/15 01:08:07;;;;;;;13.25;3.50;;;;;;;;;;5005204;28;20064;-47
2022/09/15 01:10:36;;;;;;;19.45;4.38;;;;;;;;;;5004563;28;20042;-49
2022/09/15 01:13:08;;;;;;;22.17;5.03;;;;;;;;;;5003025;28;20022;-49
2022/09/15 01:15:43;;;;;;;;;;;;;;;;;;5004951;28;20041;-48
2022/09/15 01:18:17;;;;;;;13.85;4.18;;;;;;;;;;5025875;28;19975;-48
2022/09/15 01:20:56;;;;;;;20.13;3.80;;;;;;;;;;5018731;28;20045;-48
2022/09/15 01:24:14;;;;;;;12.10;3.67;;;;;;;;;;5001579;28;20030;-52
2022/09/15 01:27:36;;;;;;;15.85;3.78;;;;;;;;;;5001180;28;20064;-48
2022/09/15 01:30:07;;;;;;;;;;;;;;;;;;4947918;29;20365;-49
2022/09/15 01:33:10;;;;;;;17.45;4.13;;;;;;;;;;4945960;29;19923;-49
2022/09/15 01:35:38;;;;;;;19.10;4.65;;;;;;;;;;4954901;28;20069;-48
2022/09/15 01:38:35;;;;;;;10.60;3.80;;;;;;;;;;4983855;28;20030;-52
2022/09/15 01:41:23;;;;;;;16.90;3.72;;;;;;;;;;4981351;28;20490;-49
2022/09/15 01:44:07;;;;;;;15.98;4.60;;;;;;;;;;4980774;28;20932;-47
2022/09/15 01:46:45;;;;;;;20.52;4.38;;;;;;;;;;4979895;28;20057;-50
2022/09/15 01:49:16;;;;;;;17.05;4.00;;;;;;;;;;4979118;28;20411;-51
2022/09/15 01:51:44;;;;;;;15.32;4.25;;;;;;;;;;4984385;28;20049;-48
2022/09/15 01:54:10;;;;;;;19.13;3.72;;;;;;;;;;4984620;28;20035;-48
2022/09/15 01:56:37;;;;;;;25.05;4.63;;;;;;;;;;4983878;28;20039;-47
2022/09/15 01:59:03;;;;;;;13.75;4.13;;;;;;;;;;4980770;28;20030;-49
2022/09/15 02:02:08;;;;;;;14.57;4.53;;;;;;;;;;5020284;28;20434;-48
2022/09/15 02:04:51;;;;;;;18.20;4.20;;;;;;;;;;5021394;28;20132;-48
2022/09/15 02:07:46;;;;;;;15.57;3.70;;;;;;;;;;5005090;28;20062;-53
2022/09/15 02:10:34;;;;;;;14.43;3.88;;;;;;;;;;5004894;28;20116;-48
2022/09/15 02:13:21;;;;;;;10.80;3.40;;;;;;;;;;5006218;28;20042;-49
2022/09/15 02:15:52;;;;;;;16.10;3.50;;;;;;;;;;5011131;28;20099;-49
2022/09/15 02:18:37;;;;;;;15.25;4.15;;;;;;;;;;5027274;28;20061;-51
2022/09/15 02:21:09;;;;;;;13.77;3.55;;;;;;;;;;5015826;28;20077;-50
2022/09/15 02:23:42;;;;;;;14.23;4.30;;;;;;;;;;5007710;28;20438;-48
2022/09/15 02:26:12;;;;;;;16.67;3.70;;;;;;;;;;5018135;28;20112;-48
2022/09/15 02:28:40;;;;;;;10.23;3.65;;;;;;;;;;5027083;28;20025;-48
2022/09/15 02:31:10;;;;;;;15.05;4.32;;;;;;;;;;5017678;28;20045;-52
2022/09/15 02:33:40;;;;;;;14.98;3.25;;;;;;;;;;5004033;28;20025;-49
2022/09/15 02:36:07;;;;;;;16.90;3.85;;;;;;;;;;5005947;28;20037;-50
2022/09/15 02:38:39;;;;;;;9.50;3.17;;;;;;;;;;5005927;28;20165;-54
2022/09/15 02:41:05;;;;;;;;;;;;;;;;;;5015616;28;20407;-48
2022/09/15 02:43:31;;;;;;;8.82;2.65;;;;;;;;;;5027161;28;19927;-49
2022/09/15 02:45:57;;;;;;;16.42;3.45;;;;;;;;;;5020407;28;20040;-48
2022/09/15 02:48:24;;;;;;;9.63;2.88;;;;;;;;;;5007895;28;20018;-50
2022/09/15 02:50:50;;;;;;;7.68;2.63;;;;;;;;;;5005129;28;20128;-47
2022/09/15 02:53:15;;;;;;;13.55;2.78;;;;;;;;;;5006391;28;20081;-47
2022/09/15 02:55:41;;;;;;;13.25;3.08;;;;;;;;;;5006356;28;20498;-49
2022/09/15 02:58:07;;;;;;;16.10;3.17;;;;;;;;;;5009783;28;20080;-49
2022/09/15 03:00:33;;;;;;;14.93;3.53;;;;;;;;;;5006275;28;20046;-52
2022/09/15 03:02:58;;;;;;;11.32;2.75;;;;;;;;;;5008285;28;20030;-48
2022/09/15 03:05:27;;;;;;;9.40;2.58;;;;;;;;;;5008586;28;20471;-48
2022/09/15 03:07:53;;;;;;;11.68;2.60;;;;;;;;;;5024336;28;20406;-49
2022/09/15 03:10:20;;;;;;;5.70;2.50;;;;;;;;;;5028342;28;20541;-51
2022/09/15 03:12:51;;;;;;;5.88;2.10;;;;;;;;;;5028268;28;20026;-49
2022/09/15 03:15:20;;;;;;;13.93;3.05;;;;;;;;;;5026000;28;20060;-47
2022/09/15 03:17:46;;;;;;;8.27;2.55;;;;;;;;;;5006074;28;20030;-48
2022/09/15 03:20:16;;;;;;;9.65;2.53;;;;;;;;;;5007689;28;20487;-50
2022/09/15 03:22:42;;;;;;;16.42;2.65;;;;;;;;;;5005056;28;20026;-49
2022/09/15 03:25:09;;;;;;;8.65;2.63;;;;;;;;;;5008294;28;20052;-47
2022/09/15 03:27:35;;;;;;;14.82;2.72;;;;;;;;;;5026088;28;20550;-47
2022/09/15 03:30:01;;;;;;;6.55;2.70;;;;;;;;;;5026584;28;20040;-49
2022/09/15 03:32:27;;;;;;;6.75;2.10;;;;;;;;;;5007749;28;20462;-48
2022/09/15 03:34:53;;;;;;;5.53;2.35;;;;;;;;;;5005639;28;20030;-52
2022/09/15 03:37:18;;;;;;;11.40;2.90;;;;;;;;;;5025439;28;20458;-52
2022/09/15 03:39:44;;;;;;;5.32;2.10;;;;;;;;;;5025141;28;20076;-48
2022/09/15 03:42:09;;;;;;;4.20;1.98;;;;;;;;;;5027424;28;20522;-48
2022/09/15 03:44:35;;;;;;;11.77;3.00;;;;;;;;;;5026733;28;20514;-52
2022/09/15 03:47:02;;;;;;;7.88;2.30;;;;;;;;;;5011290;28;20045;-48
2022/09/15 03:49:28;;;;;;;8.90;2.10;;;;;;;;;;5005792;28;20026;-50
2022/09/15 03:51:54;;;;;;;4.15;2.05;;;;;;;;;;5006394;28;20065;-47
2022/09/15 03:54:19;;;;;;;5.18;1.95;;;;;;;;;;5005660;28;20080;-48
2022/09/15 03:56:49;;;;;;;9.45;1.98;;;;;;;;;;5019309;28;20407;-47
2022/09/15 03:59:17;;;;;;;5.03;1.85;;;;;;;;;;5026509;28;20034;-50
2022/09/15 04:01:44;;;;;;;6.50;2.72;;;;;;;;;;5019655;28;20049;-48
2022/09/15 04:04:10;;;;;;;7.55;2.22;;;;;;;;;;5024364;28;20021;-50
2022/09/15 04:06:36;;;;;;;9.18;1.98;;;;;;;;;;5025975;28;20045;-50
2022/09/15 04:09:03;;;;;;;8.82;2.20;;;;;;;;;;5025194;28;20033;-50
2022/09/15 04:11:28;;;;;;;8.43;2.00;;;;;;;;;;5024210;28;20102;-47
2022/09/15 04:13:55;;;;;;;6.43;2.03;;;;;;;;;;5026928;28;20496;-46
2022/09/15 04:16:22;;;;;;;9.85;1.90;;;;;;;;;;5012752;28;20073;-48
2022/09/15 04:18:49;;;;;;;7.80;2.10;;;;;;;;;;5004235;28;20045;-48
2022/09/15 04:21:18;;;;;;;12.80;1.92;;;;;;;;;;5006167;28;20046;-48
2022/09/15 04:23:45;;;;;;;8.93;2.00;;;;;;;;;;5004553;28;20388;-53
2022/09/15 04:26:17;;;;;;;3.95;2.00;;;;;;;;;;5014273;28;20525;-48
2022/09/15 04:28:43;;;;;;;6.78;1.45;;;;;;;;;;5024196;28;20034;-48
2022/09/15 04:31:14;;;;;;;5.57;2.20;;;;;;;;;;5015588;28;20038;-49
2022/09/15 04:33:41;;;;;;;7.00;1.92;;;;;;;;;;5005881;28;20096;-50
2022/09/15 04:36:13;;;;;;;6.68;1.90;;;;;;;;;;5002843;28;20049;-47
2022/09/15 04:38:39;;;;;;;6.20;1.80;;;;;;;;;;5005277;28;20037;-48
2022/09/15 04:41:05;;;;;;;8.25;1.92;;;;;;;;;;5004500;28;20042;-50
2022/09/15 04:43:32;;;;;;;6.93;1.85;;;;;;;;;;5002501;28;20037;-47
2022/09/15 04:45:58;;;;;;;8.43;1.60;;;;;;;;;;5011819;28;20501;-47
2022/09/15 04:48:23;;;;;;;8.10;1.65;;;;;;;;;;5023282;28;20061;-50
2022/09/15 04:50:49;;;;;;;7.28;2.03;;;;;;;;;;5017157;28;20033;-48
2022/09/15 04:53:15;;;;;;;8.68;2.28;;;;;;;;;;5005669;28;20038;-49
2022/09/15 04:55:41;;;;;;;3.95;1.75;;;;;;;;;;5007324;28;20037;-51
2022/09/15 04:58:07;;;;;;;5.45;2.15;;;;;;;;;;5015562;28;20072;-48
2022/09/15 05:00:41;;;;;;;7.30;1.90;;;;;;;;;;5009123;28;20048;-49
2022/09/15 05:03:08;;;;;;;6.45;1.75;;;;;;;;;;5011860;28;20061;-47
2022/09/15 05:05:34;;;;;;;6.60;1.85;;;;;;;;;;5016025;28;20045;-51
2022/09/15 05:08:00;;;;;;;4.32;1.92;;;;;;;;;;5020942;28;20037;-47
2022/09/15 05:10:26;;;;;;;4.70;1.98;;;;;;;;;;5022925;28;20608;-48
2022/09/15 05:12:52;;;;;;;7.18;1.73;;;;;;;;;;5026169;28;20514;-48
2022/09/15 05:15:18;;;;;;;8.20;1.75;;;;;;;;;;5024608;28;20041;-48
2022/09/15 05:17:44;;;;;;;10.57;2.10;;;;;;;;;;5026646;28;20034;-49
2022/09/15 05:20:10;;;;;;;6.05;2.03;;;;;;;;;;5023910;28;20114;-50
2022/09/15 05:22:35;;;;;;;6.90;2.50;;;;;;;;;;5005290;28;20030;-49
2022/09/15 05:25:01;;;;;;;6.47;1.73;;;;;;;;;;5004550;28;20487;-49
2022/09/15 05:27:29;;;;;;;4.43;1.88;;;;;;;;;;5004402;28;20034;-49
2022/09/15 05:29:55;;;;;;;7.05;2.58;;;;;;;;;;5003056;28;20034;-47
2022/09/15 05:32:21;;;;;;;9.20;1.92;;;;;;;;;;5018385;28;20034;-48
2022/09/15 05:34:46;;;;;;;5.40;1.80;;;;;;;;;;5023901;28;20467;-51
2022/09/15 05:37:12;;;;;;;4.22;1.77;;;;;;;;;;5005758;28;20034;-53
2022/09/15 05:39:39;;;;;;;5.07;1.70;;;;;;;;;;5004458;28;20118;-48
2022/09/15 05:42:05;;;;;;;4.35;1.45;;;;;;;;;;5003810;28;20034;-48
2022/09/15 05:44:31;;;;;;;6.10;2.58;;;;;;;;;;5003678;28;20032;-47
2022/09/15 05:46:56;;;;;;;5.25;2.20;;;;;;;;;;5015119;28;20046;-50
2022/09/15 05:49:22;;;;;;;9.00;1.90;;;;;;;;;;5028172;28;20470;-51
2022/09/15 05:51:48;;;;;;;4.82;1.45;;;;;;;;;;5011895;28;20479;-48
2022/09/15 05:54:13;;;;;;;9.40;1.63;;;;;;;;;;5010246;28;20048;-51
2022/09/15 05:56:39;;;;;;;2.97;1.83;;;;;;;;;;5020306;28;20049;-49
2022/09/15 05:59:04;;;;;;;4.72;2.03;;;;;;;;;;5024582;28;20069;-49
2022/09/15 06:01:30;;;;;;;4.18;1.77;;;;;;;;;;5025528;28;20505;-50
2022/09/15 06:03:57;;;;;;;3.08;1.63;;;;;;;;;;5024402;28;20561;-48
2022/09/15 06:06:24;;;;;;;3.75;1.63;;;;;;;;;;5013904;28;20049;-47
2022/09/15 06:08:54;;;;;;;6.22;1.80;;;;;;;;;;5007490;28;20028;-48
2022/09/15 06:11:25;;;;;;;6.40;1.90;;;;;;;;;;5007081;28;20119;-48
2022/09/15 06:13:51;;;;;;;4.85;1.90;;;;;;;;;;5007820;28;20038;-47
2022/09/15 06:16:19;;;;;;;4.60;2.10;;;;;;;;;;5005799;28;20034;-48
2022/09/15 06:18:50;;;;;;;1.63;1.40;;;;;;;;;;5005008;28;20075;-50
2022/09/15 06:21:18;;;;;;;3.30;1.75;;;;;;;;;;5005527;28;20038;-47
2022/09/15 06:23:44;;;;;;;6.97;2.25;;;;;;;;;;5006359;28;20022;-50
2022/09/15 06:26:15;;;;;;;6.90;1.98;;;;;;;;;;5013100;28;20033;-51
2022/09/15 06:28:47;;;;;;;2.28;1.40;;;;;;;;;;5027556;28;20364;-50
2022/09/15 06:31:13;;;;;;;8.30;2.58;;;;;;;;;;5016938;28;20074;-48
2022/09/15 06:33:44;;;;;;;11.88;2.13;;;;;;;;;;5006876;28;20429;-48
2022/09/15 06:36:12;;;;;;;4.18;1.88;;;;;;;;;;5006204;28;20125;-54
2022/09/15 06:38:38;;;;;;;8.07;1.60;;;;;;;;;;5007193;28;20037;-49
2022/09/15 06:41:05;;;;;;;6.55;1.90;;;;;;;;;;5013913;28;20091;-49
2022/09/15 06:43:31;;;;;;;4.78;2.20;;;;;;;;;;5026155;28;20076;-47
2022/09/15 06:46:07;;;;;;;5.75;1.90;;;;;;;;;;5016592;28;20057;-48
2022/09/15 06:48:34;;;;;;;3.15;1.48;;;;;;;;;;5007340;28;20030;-47
2022/09/15 06:51:00;;;;;;;5.65;1.60;;;;;;;;;;5008376;28;20084;-47
2022/09/15 06:53:34;;;;;;;5.07;1.85;;;;;;;;;;5021287;28;20550;-51
2022/09/15 06:56:05;;;;;;;5.57;1.50;;;;;;;;;;5010788;28;20498;-47
2022/09/15 06:58:33;;;;;;;3.33;1.37;;;;;;;;;;5004862;28;20054;-45
2022/09/15 07:01:12;;;;;;;11.93;1.60;;;;;;;;;;5011138;28;20434;-46
2022/09/15 07:03:40;;;;;;;6.30;1.85;;;;;;;;;;5024355;28;20029;-48
2022/09/15 07:06:06;;;;;;;6.25;1.58;;;;;;;;;;5017637;28;20042;-47
2022/09/15 07:08:32;;;;;;;8.98;1.33;;;;;;;;;;5006249;28;20061;-48
2022/09/15 07:10:58;;;;;;;10.63;1.42;;;;;;;;;;5006601;28;20044;-48
2022/09/15 07:13:24;;;;;;;11.27;1.88;;;;;;;;;;5008152;28;20037;-49
2022/09/15 07:15:55;;;;;;;4.82;1.90;;;;;;;;;;5008179;28;20046;-49
2022/09/15 07:18:21;;;;;;;4.15;1.27;;;;;;;;;;5004616;28;20064;-46
2022/09/15 07:20:47;;;;;;;6.10;1.50;;;;;;;;;;5012349;28;20044;-46
2022/09/15 07:23:13;;;;;;;5.85;1.33;;;;;;;;;;5022160;28;20051;-46
2022/09/15 07:25:42;;;;;;;1.38;1.27;;;;;;;;;;5021204;28;20133;-45
2022/09/15 07:28:12;;;;;;;3.67;1.48;;;;;;;;;;5007493;28;20079;-48
2022/09/15 07:30:41;;;;;;;6.80;1.42;;;;;;;;;;5011306;28;20065;-45
2022/09/15 07:33:08;;;;;;;6.38;1.77;;;;;;;;;;5025160;28;20048;-46
2022/09/15 07:35:39;;;;;;;2.63;1.23;;;;;;;;;;5022656;28;20097;-47
2022/09/15 07:38:05;;;;;;;3.15;1.48;;;;;;;;;;5005875;28;20391;-48
2022/09/15 07:40:31;;;;;;;5.28;1.50;;;;;;;;;;5003877;28;20053;-46
2022/09/15 07:42:56;;;;;;;8.50;1.55;;;;;;;;;;5006099;28;20475;-46
2022/09/15 07:45:22;;;;;;;6.00;1.73;;;;;;;;;;5007927;28;20021;-48
2022/09/15 07:47:47;;;;;;;3.13;1.50;;;;;;;;;;5023897;28;20048;-45
2022/09/15 07:50:13;;;;;;;4.78;1.20;;;;;;;;;;5024645;28;20028;-48
2022/09/15 07:52:39;;;;;;;5.55;1.50;;;;;;;;;;5025683;28;20022;-46
2022/09/15 07:55:05;;;;;;;2.67;1.30;;;;;;;;;;5023964;28;20029;-48
2022/09/15 07:57:31;;;;;;;3.40;1.42;;;;;;;;;;5023299;28;20085;-51
2022/09/15 07:59:56;;;;;;;4.20;1.27;;;;;;;;;;5024190;28;20506;-46
2022/09/15 08:02:22;;;;;;;3.17;1.40;;;;;;;;;;5024415;28;20038;-46
2022/09/15 08:04:47;;;;;;;3.80;1.52;;;;;;;;;;5025769;28;20022;-46
2022/09/15 08:07:13;;;;;;;6.78;1.85;;;;;;;;;;5007597;28;20129;-47
2022/09/15 08:09:39;;;;;;;13.10;2.40;;;;;;;;;;5005863;28;20384;-47
2022/09/15 08:12:06;;;;;;;9.50;1.85;;;;;;;;;;5003919;28;20396;-47
2022/09/15 08:14:32;;;;;;;6.45;1.70;;;;;;;;;;5003388;28;20399;-47
2022/09/15 08:17:00;;;;;;;5.97;1.67;;;;;;;;;;5020318;28;20099;-48
2022/09/15 08:19:30;;;;;;;8.98;1.38;;;;;;;;;;5026049;28;20056;-45
2022/09/15 08:21:55;;;;;;;3.00;1.55;;;;;;;;;;5009054;28;20034;-48
2022/09/15 08:24:22;;;;;;;3.88;1.75;;;;;;;;;;5005974;28;20196;-48
2022/09/15 08:26:49;;;;;;;3.75;2.00;;;;;;;;;;5004573;28;20041;-49
2022/09/15 08:29:14;;;;;;;16.42;3.80;;;;;;;;;;5006060;28;20037;-50
2022/09/15 08:31:40;;;;;;;9.35;3.72;;;;;;;;;;5017202;28;20071;-49
2022/09/15 08:34:05;;;;;;;5.70;3.42;;;;;;;;;;5024972;28;20036;-46
2022/09/15 08:36:32;;;;;;;6.45;2.85;;;;;;;;;;5014767;28;20038;-47
2022/09/15 08:38:58;;;;;;;5.53;2.33;;;;;;;;;;5003493;28;20029;-46
2022/09/15 08:41:28;;;;;;;5.35;2.28;;;;;;;;;;5015650;28;20052;-47
2022/09/15 08:44:10;;;;;;;4.18;1.80;;;;;;;;;;5024024;28;20112;-47
2022/09/15 08:46:46;;;;;;;5.80;2.25;;;;;;;;;;5009388;28;20038;-49
2022/09/15 08:49:18;;;;;;;7.63;2.45;;;;;;;;;;5005368;28;20474;-47
2022/09/15 08:51:45;;;;;;;;;;;;;;;;;;5011466;28;20037;-48
2022/09/15 08:54:31;;;;;;;4.35;2.30;;;;;;;;;;5013295;28;19952;-46
2022/09/15 08:56:58;;;;;;;6.22;2.30;;;;;;;;;;5012218;28;20047;-46
2022/09/15 08:59:31;;;;;;;5.18;1.75;;;;;;;;;;5014296;28;20068;-47
2022/09/15 09:02:11;;;;;;;6.47;2.20;;;;;;;;;;5017553;28;20518;-48
2022/09/15 09:04:49;;;;;;;6.05;2.08;;;;;;;;;;5013311;28;20239;-46
2022/09/15 09:07:20;;;;;;;8.27;1.92;;;;;;;;;;5003127;28;20057;-47
2022/09/15 09:09:46;;;;;;;7.20;2.83;;;;;;;;;;5006389;28;20050;-47
2022/09/15 09:12:34;;;;;;;5.95;1.90;;;;;;;;;;5005772;28;20499;-47
2022/09/15 09:15:18;;;;;;;10.00;1.90;;;;;;;;;;5004045;28;20034;-47
2022/09/15 09:17:56;;;;;;;11.02;2.60;;;;;;;;;;5004734;28;20101;-47
2022/09/15 09:20:47;;;;;;;6.68;2.38;;;;;;;;;;5000719;28;20439;-46
2022/09/15 09:23:17;;;;;;;9.43;2.65;;;;;;;;;;5002861;28;20030;-47
2022/09/15 09:25:43;;;;;;;11.20;2.30;;;;;;;;;;5003068;28;20155;-47
2022/09/15 09:28:35;;;;;;;10.65;2.53;;;;;;;;;;5004272;28;20045;-47
2022/09/15 09:31:06;;;;;;;9.05;3.33;;;;;;;;;;5004325;28;20502;-51
2022/09/15 09:33:58;;;;;;;5.88;2.33;;;;;;;;;;5004239;28;20116;-46
2022/09/15 09:36:25;;;;;;;11.18;2.78;;;;;;;;;;5004611;28;20129;-47
2022/09/15 09:38:51;;;;;;;10.25;2.80;;;;;;;;;;5003296;28;20026;-47
2022/09/15 09:41:24;;;;;;;10.57;2.60;;;;;;;;;;5003612;28;20045;-46
2022/09/15 09:43:52;;;;;;;5.70;2.47;;;;;;;;;;5002782;28;20426;-47
2022/09/15 09:46:19;;;;;;;5.80;2.60;;;;;;;;;;5004162;28;20034;-47
2022/09/15 09:48:53;;;;;;;5.57;2.28;;;;;;;;;;5003196;28;20605;-51
2022/09/15 09:51:34;;;;;;;10.02;2.08;;;;;;;;;;5002602;28;20498;-47
2022/09/15 09:54:14;;;;;;;4.97;2.05;;;;;;;;;;5001231;28;20054;-47
2022/09/15 09:56:41;;;;;;;4.90;1.88;;;;;;;;;;5002198;28;20038;-50
2022/09/15 09:59:42;;;;;;;5.22;1.98;;;;;;;;;;5003326;28;20112;-46
2022/09/15 10:02:11;;;;;;;3.63;2.35;;;;;;;;;;5003715;28;20048;-49
2022/09/15 10:04:39;;;;;;;6.15;2.17;;;;;;;;;;5002500;28;20096;-47
2022/09/15 10:07:06;;;;;;;7.47;2.53;;;;;;;;;;5001172;28;20045;-52
2022/09/15 10:09:31;;;;;;;6.28;1.95;;;;;;;;;;5003360;28;20026;-51
2022/09/15 10:11:59;;;;;;;2.88;1.67;;;;;;;;;;5019177;28;20036;-49
2022/09/15 10:14:40;;;;;;;4.30;1.85;;;;;;;;;;5025083;28;20056;-47
2022/09/15 10:17:19;;;;;;;7.28;1.83;;;;;;;;;;5022463;28;20406;-48
2022/09/15 10:19:48;;;;;;;6.90;1.85;;;;;;;;;;5024426;28;20029;-53
2022/09/15 10:22:36;;;;;;;6.53;2.00;;;;;;;;;;5004435;28;20030;-46
2022/09/15 10:25:22;;;;;;;3.42;1.85;;;;;;;;;;5003778;28;20025;-46
2022/09/15 10:28:14;;;;;;;5.75;1.75;;;;;;;;;;5008135;28;20133;-48
2022/09/15 10:30:55;;;;;;;3.47;1.70;;;;;;;;;;5016374;28;20108;-47
2022/09/15 10:33:25;;;;;;;3.95;1.20;;;;;;;;;;5001469;28;20116;-49
2022/09/15 10:35:52;;;;;;;2.00;1.48;;;;;;;;;;5004565;28;20041;-49
2022/09/15 10:38:25;;;;;;;4.93;1.50;;;;;;;;;;5009004;28;20037;-46
2022/09/15 10:40:57;;;;;;;3.40;1.27;;;;;;;;;;5012858;28;20041;-46
2022/09/15 10:43:26;;;;;;;3.58;1.30;;;;;;;;;;5025109;28;20371;-46
2022/09/15 10:46:00;;;;;;;3.90;1.60;;;;;;;;;;5026311;28;20042;-48
2022/09/15 10:48:31;;;;;;;3.67;1.30;;;;;;;;;;5029516;28;20029;-48
2022/09/15 10:51:08;;;;;;;;;;;;;;;;;;5028269;28;20038;-46
2022/09/15 10:53:51;;;;;;;2.13;1.30;;;;;;;;;;5027792;28;19924;-46
2022/09/15 10:56:28;;;;;;;4.53;1.30;;;;;;;;;;5023227;28;20044;-49
2022/09/15 10:59:24;;;;;;;3.65;1.30;;;;;;;;;;5024315;28;20103;-48
2022/09/15 11:02:04;;;;;;;7.97;1.67;;;;;;;;;;5025198;28;20050;-50
2022/09/15 11:04:44;;;;;;;2.10;1.13;;;;;;;;;;5022184;28;20044;-47
2022/09/15 11:07:24;;;;;;;3.65;1.30;;;;;;;;;;5009237;28;20042;-49
2022/09/15 11:09:58;;;;;;;4.13;1.48;;;;;;;;;;5002759;28;20045;-46
2022/09/15 11:12:48;;;;;;;1.38;1.05;;;;;;;;;;5024881;28;20041;-48
2022/09/15 11:15:16;;;;;;;3.90;1.48;;;;;;;;;;5025352;28;20057;-49
2022/09/15 11:18:06;;;;;;;3.13;1.50;;;;;;;;;;5004361;28;20037;-47
2022/09/15 11:20:44;;;;;;;2.35;1.30;;;;;;;;;;5006604;28;20422;-46
2022/09/15 11:23:38;;;;;;;2.70;1.50;;;;;;;;;;5007863;28;20236;-46
2022/09/15 11:26:19;;;;;;;2.53;1.38;;;;;;;;;;5012047;28;20116;-47
2022/09/15 11:28:52;;;;;;;2.93;1.73;;;;;;;;;;5026864;28;20040;-47
2022/09/15 11:31:23;;;;;;;2.05;1.80;;;;;;;;;;5014002;28;20035;-46
2022/09/15 11:34:01;;;;;;;4.43;1.50;;;;;;;;;;5007436;28;20032;-50
2022/09/15 11:36:35;;;;;;;4.50;1.02;;;;;;;;;;5018394;28;20044;-47
2022/09/15 11:39:17;;;;;;;2.97;1.30;;;;;;;;;;5023915;28;20068;-47
2022/09/15 11:41:55;;;;;;;1.83;1.27;;;;;;;;;;5025117;28;20403;-48
2022/09/15 11:44:37;;;;;;;1.85;1.02;;;;;;;;;;5025502;28;20386;-48
2022/09/15 11:47:03;;;;;;;1.77;1.10;;;;;;;;;;5006848;28;20038;-49
2022/09/15 11:49:47;;;;;;;3.85;1.48;;;;;;;;;;5008233;28;20101;-46
2022/09/15 11:52:34;;;;;;;1.42;1.27;;;;;;;;;;5003736;28;20030;-50
2022/09/15 11:55:19;;;;;;;2.90;1.20;;;;;;;;;;5005542;28;20100;-48
2022/09/15 11:57:52;;;;;;;5.53;1.83;;;;;;;;;;5004041;28;20055;-47
2022/09/15 12:00:19;;;;;;;2.70;1.58;;;;;;;;;;5005713;28;20021;-47
2022/09/15 12:02:59;;;;;;;1.73;0.98;;;;;;;;;;5004038;28;20513;-47
2022/09/15 12:06:06;;;;;;;3.13;1.60;;;;;;;;;;5009591;28;20022;-46
2022/09/15 12:09:04;;;;;;;2.72;1.40;;;;;;;;;;4946627;28;20042;-48
2022/09/15 12:11:41;;;;;;;4.35;1.20;;;;;;;;;;4944435;28;20043;-46
2022/09/15 12:14:13;;;;;;;5.82;1.30;;;;;;;;;;4960831;28;20026;-47
2022/09/15 12:16:39;;;;;;;1.23;1.13;;;;;;;;;;4964286;28;20062;-47
2022/09/15 12:19:10;;;;;;;3.08;1.58;;;;;;;;;;4965514;28;20039;-47
2022/09/15 12:21:42;;;;;;;1.42;1.30;;;;;;;;;;4965184;28;20065;-47
2022/09/15 12:24:18;;;;;;;2.15;1.60;;;;;;;;;;4962777;28;20031;-48
2022/09/15 12:26:45;;;;;;;1.70;1.40;;;;;;;;;;4964177;28;20435;-50
2022/09/15 12:29:25;;;;;;;2.83;1.45;;;;;;;;;;4966079;28;20122;-49
2022/09/15 12:32:28;;;;;;;1.23;1.13;;;;;;;;;;4964299;28;20574;-45
2022/09/15 12:35:04;;;;;;;1.85;1.20;;;;;;;;;;4964987;28;20559;-51
2022/09/15 12:37:36;;;;;;;2.65;1.35;;;;;;;;;;4968792;28;20038;-49
2022/09/15 12:40:05;;;;;;;3.40;1.50;;;;;;;;;;4965806;28;20042;-49
2022/09/15 12:42:34;;;;;;;1.67;1.40;;;;;;;;;;4962857;28;20121;-46
2022/09/15 12:45:23;;;;;;;1.85;1.30;;;;;;;;;;5000382;28;20034;-50
2022/09/15 12:48:00;;;;;;;4.78;1.40;;;;;;;;;;5023193;28;20313;-47
2022/09/15 12:50:33;;;;;;;3.22;1.67;;;;;;;;;;5020554;28;20061;-48
2022/09/15 12:53:01;;;;;;;7.45;1.48;;;;;;;;;;5002724;28;20025;-46
2022/09/15 12:55:35;;;;;;;6.55;1.40;;;;;;;;;;5003903;28;20133;-48
2022/09/15 12:58:14;;;;;;;3.95;1.60;;;;;;;;;;5005437;28;20057;-49
2022/09/15 13:00:43;;;;;;;4.28;1.40;;;;;;;;;;5005691;28;20076;-47
2022/09/15 13:03:53;;;;;;;1.40;1.30;;;;;;;;;;5005385;28;20033;-47
2022/09/15 13:06:23;;;;;;;2.80;1.50;;;;;;;;;;5003397;28;20199;-46
2022/09/15 13:08:51;;;;;;;2.35;1.70;;;;;;;;;;5004322;28;20026;-50
2022/09/15 13:11:33;;;;;;;5.15;1.60;;;;;;;;;;5012618;28;20030;-52
2022/09/15 13:14:07;;;;;;;;;;;;;;;;;;5022307;28;20120;-46
2022/09/15 13:16:39;;;;;;;5.10;1.88;;;;;;;;;;5014910;28;19976;-46
2022/09/15 13:19:23;;;;;;;;;;;;;;;;;;5004052;28;20061;-49
2022/09/15 13:21:58;;;;;;;2.13;1.42;;;;;;;;;;5002534;28;19951;-46
2022/09/15 13:24:49;;;;;;;4.75;1.50;;;;;;;;;;5005556;28;20033;-47
2022/09/15 13:27:18;;;;;;;2.33;1.60;;;;;;;;;;5001689;28;20437;-46
2022/09/15 13:29:51;;;;;;;2.95;1.40;;;;;;;;;;5002884;28;20033;-45
2022/09/15 13:32:19;;;;;;;4.32;1.48;;;;;;;;;;5002537;28;20113;-48
2022/09/15 13:34:45;;;;;;;2.22;1.15;;;;;;;;;;5003887;28;20030;-46
2022/09/15 13:37:42;;;;;;;1.85;1.30;;;;;;;;;;5001758;28;20130;-45
2022/09/15 13:40:32;;;;;;;1.50;1.40;;;;;;;;;;5000838;28;20565;-47
2022/09/15 13:43:09;;;;;;;2.08;1.42;;;;;;;;;;5005918;28;20034;-46
2022/09/15 13:46:01;;;;;;;2.03;1.80;;;;;;;;;;5008719;28;20065;-49
2022/09/15 13:48:36;;;;;;;2.50;1.58;;;;;;;;;;5025229;28;20057;-49
2022/09/15 13:51:11;;;;;;;4.32;1.80;;;;;;;;;;5021784;28;20037;-46
2022/09/15 13:53:50;;;;;;;4.78;1.60;;;;;;;;;;5019824;28;20037;-50
2022/09/15 13:56:21;;;;;;;2.38;1.40;;;;;;;;;;5010220;28;20498;-45
2022/09/15 13:58:48;;;;;;;2.38;1.60;;;;;;;;;;5002398;28;20049;-48
2022/09/15 14:01:15;;;;;;;1.92;1.38;;;;;;;;;;5013496;28;20152;-47
2022/09/15 14:03:59;;;;;;;2.38;1.38;;;;;;;;;;5024086;28;20484;-46
2022/09/15 14:06:32;;;;;;;2.38;1.70;;;;;;;;;;5012809;28;20645;-45
2022/09/15 14:09:03;;;;;;;2.65;1.50;;;;;;;;;;5000379;28;20479;-45
2022/09/15 14:11:34;;;;;;;3.42;1.25;;;;;;;;;;5018924;28;20042;-47
2022/09/15 14:14:00;;;;;;;1.52;1.40;;;;;;;;;;5027770;28;20021;-50
2022/09/15 14:16:26;;;;;;;2.42;1.55;;;;;;;;;;5016967;28;20451;-46
2022/09/15 14:18:57;;;;;;;1.40;1.30;;;;;;;;;;5007461;28;20041;-50
2022/09/15 14:21:33;;;;;;;3.75;1.38;;;;;;;;;;5008812;28;20521;-45
2022/09/15 14:24:13;;;;;;;1.67;1.58;;;;;;;;;;5005681;28;20038;-45
2022/09/15 14:26:39;;;;;;;2.10;1.60;;;;;;;;;;5005805;28;20125;-46
2022/09/15 14:29:06;;;;;;;5.35;1.77;;;;;;;;;;5007684;28;20121;-45
2022/09/15 14:31:37;;;;;;;12.10;2.17;;;;;;;;;;5018577;28;20084;-48
2022/09/15 14:34:19;;;;;;;4.20;1.73;;;;;;;;;;5028205;28;20033;-46
2022/09/15 14:36:52;;;;;;;2.53;1.50;;;;;;;;;;5014434;28;20046;-49
2022/09/15 14:39:22;;;;;;;3.17;1.60;;;;;;;;;;5007514;28;20030;-47
2022/09/15 14:41:49;;;;;;;2.83;1.55;;;;;;;;;;5020244;28;20045;-45
2022/09/15 14:44:37;;;;;;;2.13;1.60;;;;;;;;;;5029122;28;20029;-47
2022/09/15 14:47:30;;;;;;;6.47;1.40;;;;;;;;;;5024406;28;20514;-46
2022/09/15 14:50:12;;;;;;;1.55;1.15;;;;;;;;;;5018734;28;20099;-51
2022/09/15 14:52:42;;;;;;;2.72;1.60;;;;;;;;;;5023552;28;20691;-47
2022/09/15 14:55:27;;;;;;;2.97;1.60;;;;;;;;;;5026692;28;20041;-47
2022/09/15 14:58:19;;;;;;;1.70;1.50;;;;;;;;;;5022734;28;20139;-47
2022/09/15 15:00:56;;;;;;;1.38;1.27;;;;;;;;;;5020495;28;20053;-45
2022/09/15 15:03:38;;;;;;;1.83;1.50;;;;;;;;;;5008354;28;20730;-51
2022/09/15 15:06:21;;;;;;;1.90;1.40;;;;;;;;;;5005735;28;20061;-47
2022/09/15 15:09:02;;;;;;;5.07;1.30;;;;;;;;;;5004046;28;20463;-45
2022/09/15 15:11:30;;;;;;;1.40;1.30;;;;;;;;;;5017791;28;20056;-46